createdAt,value
2018-12-19T00:00:31.967Z,91.71
2018-12-19T00:01:31.951Z,91.60
2018-12-19T00:02:31.948Z,91.71
2018-12-19T00:03:31.946Z,91.81
2018-12-19T00:04:31.952Z,91.71
2018-12-19T00:05:31.914Z,91.29
2018-12-19T00:06:31.897Z,91.81
2018-12-19T00:07:32.338Z,91.71
2018-12-19T00:08:31.883Z,91.71
2018-12-19T00:09:31.884Z,91.85
2018-12-19T00:10:31.878Z,91.85
2018-12-19T00:11:31.852Z,91.81
2018-12-19T00:12:31.854Z,91.71
2018-12-19T00:13:31.836Z,91.39
2018-12-19T00:14:31.837Z,91.60
2018-12-19T00:15:31.827Z,91.71
2018-12-19T00:16:31.813Z,91.85
2018-12-19T00:17:31.788Z,91.75
2018-12-19T00:18:31.781Z,91.85
2018-12-19T00:19:31.789Z,91.85
2018-12-19T00:20:31.753Z,91.96
2018-12-19T00:21:31.756Z,91.85
2018-12-19T00:22:31.739Z,91.54
2018-12-19T00:23:31.723Z,91.75
2018-12-19T00:24:31.785Z,91.96
2018-12-19T00:25:31.701Z,91.96
2018-12-19T00:26:31.693Z,91.75
2018-12-19T00:27:31.805Z,91.75
2018-12-19T00:28:31.739Z,91.54
2018-12-19T00:29:31.665Z,91.75
2018-12-19T00:30:31.674Z,91.85
2018-12-19T00:31:31.641Z,91.85
2018-12-19T00:32:31.651Z,91.85
2018-12-19T00:33:31.630Z,91.64
2018-12-19T00:34:31.612Z,91.75
2018-12-19T00:35:31.618Z,91.50
2018-12-19T00:36:31.594Z,91.22
2018-12-19T00:37:31.627Z,91.33
2018-12-19T00:38:31.572Z,91.96
2018-12-19T00:39:31.568Z,91.96
2018-12-19T00:40:31.563Z,91.96
2018-12-19T00:41:31.539Z,91.75
2018-12-19T00:42:31.527Z,91.43
2018-12-19T00:43:31.541Z,91.96
2018-12-19T00:44:31.505Z,91.96
2018-12-19T00:45:31.512Z,91.96
2018-12-19T00:46:31.485Z,91.85
2018-12-19T00:47:31.473Z,91.85
2018-12-19T00:48:31.486Z,91.85
2018-12-19T00:49:31.456Z,91.96
2018-12-19T00:50:31.463Z,91.75
2018-12-19T00:51:31.436Z,91.85
2018-12-19T00:52:31.420Z,91.27
2018-12-19T00:53:31.421Z,91.43
2018-12-19T00:54:31.428Z,91.54
2018-12-19T00:55:31.425Z,91.85
2018-12-19T00:56:31.387Z,91.54
2018-12-19T00:57:31.375Z,91.64
2018-12-19T00:58:31.356Z,91.54
2018-12-19T00:59:31.346Z,91.64
2018-12-19T01:00:31.364Z,91.64
2018-12-19T01:01:31.327Z,91.85
2018-12-19T01:02:31.326Z,91.54
2018-12-19T01:03:31.312Z,91.43
2018-12-19T01:04:31.298Z,91.64
2018-12-19T01:05:31.328Z,91.58
2018-12-19T01:06:31.274Z,91.64
2018-12-19T01:07:31.276Z,91.54
2018-12-19T01:08:31.276Z,91.64
2018-12-19T01:09:31.257Z,91.69
2018-12-19T01:10:31.234Z,91.64
2018-12-19T01:11:31.248Z,91.33
2018-12-19T01:12:31.210Z,91.64
2018-12-19T01:13:31.207Z,91.43
2018-12-19T01:14:31.202Z,91.43
2018-12-19T01:15:31.194Z,91.33
2018-12-19T01:16:31.207Z,91.12
2018-12-19T01:17:31.164Z,91.12
2018-12-19T01:18:31.173Z,90.91
2018-12-19T01:19:31.141Z,91.02
2018-12-19T01:20:31.146Z,91.12
2018-12-19T01:21:31.146Z,91.02
2018-12-19T01:22:31.107Z,91.22
2018-12-19T01:23:31.116Z,91.12
2018-12-19T01:24:31.086Z,91.64
2018-12-19T01:25:31.084Z,91.54
2018-12-19T01:26:31.075Z,91.43
2018-12-19T01:27:31.082Z,91.75
2018-12-19T01:28:31.048Z,91.22
2018-12-19T01:29:31.044Z,91.02
2018-12-19T01:30:31.022Z,91.02
2018-12-19T01:31:31.018Z,91.02
2018-12-19T01:32:31.623Z,91.22
2018-12-19T01:33:30.995Z,91.02
2018-12-19T01:34:30.985Z,91.12
2018-12-19T01:35:30.972Z,91.12
2018-12-19T01:36:30.962Z,91.12
2018-12-19T01:37:30.974Z,91.22
2018-12-19T01:38:30.945Z,91.12
2018-12-19T01:39:30.930Z,91.33
2018-12-19T01:40:30.919Z,91.22
2018-12-19T01:41:30.911Z,91.22
2018-12-19T01:42:30.925Z,91.12
2018-12-19T01:43:30.902Z,91.12
2018-12-19T01:44:30.884Z,91.12
2018-12-19T01:45:30.871Z,91.02
2018-12-19T01:46:30.858Z,91.22
2018-12-19T01:47:30.874Z,91.22
2018-12-19T01:48:30.843Z,91.02
2018-12-19T01:49:30.849Z,91.02
2018-12-19T01:50:30.816Z,91.43
2018-12-19T01:51:30.810Z,91.12
2018-12-19T01:52:30.794Z,90.91
2018-12-19T01:53:30.798Z,91.02
2018-12-19T01:54:30.790Z,91.18
2018-12-19T01:55:30.770Z,91.39
2018-12-19T01:56:30.760Z,91.39
2018-12-19T01:57:30.738Z,91.18
2018-12-19T01:58:30.754Z,91.39
2018-12-19T01:59:30.742Z,91.39
2018-12-19T02:00:30.724Z,90.97
2018-12-19T02:01:30.703Z,91.18
2018-12-19T02:02:30.698Z,91.39
2018-12-19T02:03:30.681Z,91.39
2018-12-19T02:04:30.710Z,91.54
2018-12-19T02:05:30.659Z,91.39
2018-12-19T02:06:30.654Z,91.18
2018-12-19T02:07:30.640Z,91.39
2018-12-19T02:08:30.629Z,91.39
2018-12-19T02:09:30.616Z,90.87
2018-12-19T02:10:30.626Z,90.97
2018-12-19T02:11:30.597Z,91.43
2018-12-19T02:12:30.594Z,91.39
2018-12-19T02:13:30.598Z,90.97
2018-12-19T02:14:30.570Z,90.97
2018-12-19T02:15:30.559Z,91.08
2018-12-19T02:16:30.540Z,91.43
2018-12-19T02:17:30.536Z,91.08
2018-12-19T02:18:30.544Z,91.02
2018-12-19T02:19:30.519Z,91.54
2018-12-19T02:20:30.522Z,91.43
2018-12-19T02:21:30.498Z,91.43
2018-12-19T02:22:30.479Z,91.33
2018-12-19T02:23:30.477Z,91.43
2018-12-19T02:24:30.487Z,91.43
2018-12-19T02:25:30.455Z,91.54
2018-12-19T02:26:30.454Z,91.22
2018-12-19T02:27:30.431Z,91.43
2018-12-19T02:28:30.414Z,91.33
2018-12-19T02:29:30.444Z,91.33
2018-12-19T02:30:30.398Z,91.33
2018-12-19T02:31:30.388Z,90.91
2018-12-19T02:32:30.374Z,90.91
2018-12-19T02:33:30.369Z,91.12
2018-12-19T02:34:30.373Z,91.33
2018-12-19T02:35:30.352Z,91.12
2018-12-19T02:36:30.336Z,91.33
2018-12-19T02:37:30.327Z,91.33
2018-12-19T02:38:30.314Z,91.33
2018-12-19T02:39:36.105Z,91.37
2018-12-19T02:40:31.298Z,91.22
2018-12-19T02:41:30.295Z,91.27
2018-12-19T02:42:30.271Z,91.02
2018-12-19T02:43:30.263Z,91.06
2018-12-19T02:44:30.272Z,91.12
2018-12-19T02:45:30.256Z,91.33
2018-12-19T02:46:30.234Z,91.37
2018-12-19T02:47:30.231Z,91.02
2018-12-19T02:48:30.212Z,90.91
2018-12-19T02:49:30.198Z,91.06
2018-12-19T02:50:30.214Z,91.12
2018-12-19T02:51:30.179Z,91.06
2018-12-19T02:52:30.172Z,91.16
2018-12-19T02:53:30.164Z,91.16
2018-12-19T02:54:30.144Z,91.33
2018-12-19T02:55:30.157Z,91.79
2018-12-19T02:56:30.130Z,91.47
2018-12-19T02:57:30.122Z,91.27
2018-12-19T02:58:30.109Z,91.06
2018-12-19T02:59:30.107Z,91.16
2018-12-19T03:00:30.119Z,91.54
2018-12-19T03:01:30.076Z,91.85
2018-12-19T03:02:30.062Z,91.89
2018-12-19T03:03:30.054Z,91.79
2018-12-19T03:04:30.054Z,91.75
2018-12-19T03:05:30.050Z,91.89
2018-12-19T03:06:30.037Z,91.89
2018-12-19T03:07:30.036Z,91.58
2018-12-19T03:08:30.000Z,91.69
2018-12-19T03:09:29.985Z,91.54
2018-12-19T03:10:29.998Z,91.58
2018-12-19T03:11:29.989Z,91.85
2018-12-19T03:12:29.955Z,91.75
2018-12-19T03:13:29.965Z,91.85
2018-12-19T03:14:29.974Z,91.43
2018-12-19T03:15:29.924Z,91.22
2018-12-19T03:16:29.937Z,91.22
2018-12-19T03:17:29.905Z,91.22
2018-12-19T03:18:29.897Z,91.02
2018-12-19T03:19:29.898Z,91.22
2018-12-19T03:20:29.902Z,91.22
2018-12-19T03:21:29.877Z,91.33
2018-12-19T03:22:29.857Z,91.22
2018-12-19T03:23:29.841Z,91.37
2018-12-19T03:24:29.841Z,91.33
2018-12-19T03:25:29.821Z,91.33
2018-12-19T03:26:29.848Z,91.12
2018-12-19T03:27:29.803Z,91.27
2018-12-19T03:28:29.796Z,91.06
2018-12-19T03:29:29.783Z,91.12
2018-12-19T03:30:29.784Z,91.02
2018-12-19T03:31:29.786Z,91.22
2018-12-19T03:32:29.749Z,91.12
2018-12-19T03:33:29.745Z,90.91
2018-12-19T03:34:29.727Z,91.02
2018-12-19T03:35:29.715Z,90.91
2018-12-19T03:36:29.726Z,91.02
2018-12-19T03:37:29.694Z,91.33
2018-12-19T03:38:29.692Z,91.37
2018-12-19T03:39:29.680Z,91.02
2018-12-19T03:40:29.664Z,91.22
2018-12-19T03:41:29.668Z,91.02
2018-12-19T03:42:29.646Z,91.22
2018-12-19T03:43:29.640Z,91.27
2018-12-19T03:44:29.636Z,91.47
2018-12-19T03:45:29.622Z,91.79
2018-12-19T03:46:29.620Z,91.69
2018-12-19T03:47:29.592Z,91.58
2018-12-19T03:48:29.590Z,91.89
2018-12-19T03:49:29.582Z,91.37
2018-12-19T03:50:29.558Z,91.89
2018-12-19T03:51:29.574Z,91.69
2018-12-19T03:52:29.544Z,91.79
2018-12-19T03:53:29.524Z,91.43
2018-12-19T03:54:29.526Z,91.89
2018-12-19T03:55:29.514Z,91.96
2018-12-19T03:56:29.538Z,91.64
2018-12-19T03:57:29.490Z,91.85
2018-12-19T03:58:29.482Z,91.89
2018-12-19T03:59:29.466Z,91.54
2018-12-19T04:00:29.460Z,91.43
2018-12-19T04:01:29.485Z,91.43
2018-12-19T04:02:29.440Z,91.37
2018-12-19T04:03:29.428Z,91.64
2018-12-19T04:04:29.415Z,91.69
2018-12-19T04:05:29.408Z,91.47
2018-12-19T04:06:29.402Z,91.64
2018-12-19T04:07:29.410Z,91.69
2018-12-19T04:08:29.386Z,91.69
2018-12-19T04:09:29.360Z,91.69
2018-12-19T04:10:29.353Z,91.85
2018-12-19T04:11:29.349Z,91.64
2018-12-19T04:12:29.357Z,91.69
2018-12-19T04:13:29.322Z,91.85
2018-12-19T04:14:29.332Z,91.85
2018-12-19T04:15:29.297Z,91.64
2018-12-19T04:16:29.324Z,91.54
2018-12-19T04:17:29.303Z,91.22
2018-12-19T04:18:29.273Z,91.22
2018-12-19T04:19:29.259Z,91.12
2018-12-19T04:20:29.257Z,91.06
2018-12-19T04:21:29.242Z,91.02
2018-12-19T04:22:36.496Z,91.12
2018-12-19T04:23:29.223Z,91.79
2018-12-19T04:24:29.222Z,91.22
2018-12-19T04:25:29.200Z,91.22
2018-12-19T04:26:29.191Z,91.47
2018-12-19T04:27:29.221Z,91.22
2018-12-19T04:28:29.159Z,91.16
2018-12-19T04:29:29.159Z,90.95
2018-12-19T04:30:29.151Z,91.16
2018-12-19T04:31:29.132Z,91.22
2018-12-19T04:32:29.131Z,91.22
2018-12-19T04:33:29.202Z,91.12
2018-12-19T04:34:29.103Z,91.02
2018-12-19T04:35:29.092Z,90.91
2018-12-19T04:36:29.079Z,91.12
2018-12-19T04:37:29.073Z,90.91
2018-12-19T04:38:29.078Z,91.02
2018-12-19T04:39:29.047Z,91.12
2018-12-19T04:40:29.037Z,90.81
2018-12-19T04:41:29.032Z,91.02
2018-12-19T04:42:29.018Z,90.91
2018-12-19T04:43:29.053Z,91.33
2018-12-19T04:44:29.005Z,91.33
2018-12-19T04:45:28.992Z,91.12
2018-12-19T04:46:29.023Z,91.43
2018-12-19T04:47:28.971Z,91.33
2018-12-19T04:48:28.976Z,91.33
2018-12-19T04:49:28.946Z,91.22
2018-12-19T04:50:28.937Z,91.43
2018-12-19T04:51:28.925Z,91.33
2018-12-19T04:52:28.916Z,91.29
2018-12-19T04:53:28.921Z,91.33
2018-12-19T04:54:28.891Z,91.33
2018-12-19T04:55:28.885Z,91.18
2018-12-19T04:56:28.872Z,91.43
2018-12-19T04:57:28.864Z,90.56
2018-12-19T04:58:28.881Z,90.66
2018-12-19T04:59:28.853Z,90.70
2018-12-19T05:00:28.837Z,90.35
2018-12-19T05:01:28.823Z,90.56
2018-12-19T05:02:28.808Z,90.77
2018-12-19T05:03:28.817Z,90.70
2018-12-19T05:04:28.792Z,90.50
2018-12-19T05:05:28.784Z,90.35
2018-12-19T05:06:28.770Z,90.35
2018-12-19T05:07:28.764Z,90.56
2018-12-19T05:08:28.770Z,90.25
2018-12-19T05:09:28.752Z,90.56
2018-12-19T05:10:28.844Z,90.14
2018-12-19T05:11:28.720Z,90.03
2018-12-19T05:12:28.705Z,90.03
2018-12-19T05:13:28.716Z,90.25
2018-12-19T05:14:28.679Z,90.50
2018-12-19T05:15:28.671Z,90.03
2018-12-19T05:16:28.671Z,90.14
2018-12-19T05:17:28.662Z,90.14
2018-12-19T05:18:28.673Z,90.14
2018-12-19T05:19:28.642Z,89.83
2018-12-19T05:20:28.620Z,90.03
2018-12-19T05:21:28.606Z,89.72
2018-12-19T05:22:28.610Z,89.51
2018-12-19T05:23:28.620Z,89.31
2018-12-19T05:24:28.583Z,89.83
2018-12-19T05:25:28.566Z,89.62
2018-12-19T05:26:28.558Z,89.83
2018-12-19T05:27:28.548Z,89.93
2018-12-19T05:28:28.576Z,89.31
2018-12-19T05:29:28.528Z,89.62
2018-12-19T05:30:28.524Z,90.14
2018-12-19T05:31:28.509Z,89.93
2018-12-19T05:32:28.554Z,89.72
2018-12-19T05:33:28.515Z,89.62
2018-12-19T05:34:28.483Z,89.51
2018-12-19T05:35:28.462Z,89.51
2018-12-19T05:36:28.456Z,89.51
2018-12-19T05:37:28.441Z,89.62
2018-12-19T05:38:28.433Z,89.51
2018-12-19T05:39:28.581Z,89.31
2018-12-19T05:40:28.416Z,89.51
2018-12-19T05:41:28.402Z,89.51
2018-12-19T05:42:28.401Z,89.51
2018-12-19T05:43:28.414Z,89.51
2018-12-19T05:44:28.394Z,89.72
2018-12-19T05:45:28.358Z,89.58
2018-12-19T05:46:28.357Z,89.62
2018-12-19T05:47:28.338Z,89.51
2018-12-19T05:48:28.334Z,89.41
2018-12-19T05:49:28.341Z,89.41
2018-12-19T05:50:28.311Z,89.51
2018-12-19T05:51:28.296Z,89.72
2018-12-19T05:52:28.293Z,89.72
2018-12-19T05:53:28.276Z,89.83
2018-12-19T05:54:28.287Z,89.51
2018-12-19T05:55:28.259Z,89.93
2018-12-19T05:56:28.258Z,89.51
2018-12-19T05:57:28.237Z,90.03
2018-12-19T05:58:28.234Z,89.93
2018-12-19T05:59:28.233Z,89.72
2018-12-19T06:00:28.206Z,89.93
2018-12-19T06:01:28.214Z,89.10
2018-12-19T06:02:28.191Z,89.83
2018-12-19T06:03:28.182Z,88.99
2018-12-19T06:04:28.170Z,88.99
2018-12-19T06:05:28.154Z,89.20
2018-12-19T06:06:28.157Z,89.10
2018-12-19T06:07:28.130Z,89.10
2018-12-19T06:08:28.122Z,88.78
2018-12-19T06:09:28.117Z,89.93
2018-12-19T06:10:28.128Z,89.93
2018-12-19T06:11:28.089Z,90.03
2018-12-19T06:12:28.082Z,88.78
2018-12-19T06:13:28.067Z,88.99
2018-12-19T06:14:28.054Z,89.10
2018-12-19T06:15:28.062Z,88.99
2018-12-19T06:16:28.054Z,88.89
2018-12-19T06:17:28.038Z,88.99
2018-12-19T06:18:28.022Z,88.37
2018-12-19T06:19:28.005Z,88.37
2018-12-19T06:20:27.991Z,88.26
2018-12-19T06:21:28.148Z,88.78
2018-12-19T06:22:27.982Z,88.47
2018-12-19T06:23:27.967Z,88.57
2018-12-19T06:24:27.950Z,88.68
2018-12-19T06:25:27.945Z,88.78
2018-12-19T06:26:28.403Z,88.37
2018-12-19T06:27:27.924Z,88.47
2018-12-19T06:28:27.930Z,88.57
2018-12-19T06:29:27.898Z,88.57
2018-12-19T06:30:27.902Z,88.47
2018-12-19T06:31:27.938Z,88.37
2018-12-19T06:32:27.866Z,88.26
2018-12-19T06:33:27.862Z,88.47
2018-12-19T06:34:35.909Z,88.26
2018-12-19T06:35:27.879Z,88.37
2018-12-19T06:36:27.860Z,88.16
2018-12-19T06:37:27.816Z,88.06
2018-12-19T06:38:27.810Z,88.26
2018-12-19T06:39:27.792Z,88.47
2018-12-19T06:40:32.651Z,88.57
2018-12-19T06:41:28.792Z,88.37
2018-12-19T06:42:27.766Z,88.06
2018-12-19T06:43:27.752Z,88.57
2018-12-19T06:44:27.746Z,88.16
2018-12-19T06:45:27.736Z,88.16
2018-12-19T06:46:27.750Z,87.84
2018-12-19T06:47:27.707Z,87.84
2018-12-19T06:48:27.702Z,88.16
2018-12-19T06:49:27.697Z,88.16
2018-12-19T06:50:27.674Z,87.95
2018-12-19T06:51:27.680Z,88.16
2018-12-19T06:52:27.667Z,88.26
2018-12-19T06:53:27.701Z,88.01
2018-12-19T06:54:27.636Z,88.26
2018-12-19T06:55:27.634Z,88.16
2018-12-19T06:56:27.639Z,88.26
2018-12-19T06:57:27.618Z,88.37
2018-12-19T06:58:27.603Z,88.06
2018-12-19T06:59:27.586Z,88.06
2018-12-19T07:00:27.573Z,88.26
2018-12-19T07:01:27.571Z,88.26
2018-12-19T07:02:27.564Z,88.68
2018-12-19T07:03:27.560Z,88.57
2018-12-19T07:04:27.536Z,88.37
2018-12-19T07:05:27.532Z,87.43
2018-12-19T07:06:27.505Z,87.43
2018-12-19T07:07:27.521Z,87.43
2018-12-19T07:08:27.493Z,87.43
2018-12-19T07:09:27.492Z,87.63
2018-12-19T07:10:27.464Z,87.95
2018-12-19T07:11:27.460Z,88.06
2018-12-19T07:12:27.468Z,87.74
2018-12-19T07:13:27.694Z,87.63
2018-12-19T07:14:27.438Z,87.63
2018-12-19T07:15:27.445Z,87.43
2018-12-19T07:16:27.464Z,87.53
2018-12-19T07:17:27.440Z,87.53
2018-12-19T07:18:27.381Z,87.63
2018-12-19T07:19:27.393Z,87.74
2018-12-19T07:20:27.374Z,87.53
2018-12-19T07:21:27.362Z,87.63
2018-12-19T07:22:27.344Z,87.53
2018-12-19T07:23:27.346Z,87.32
2018-12-19T07:24:27.320Z,87.22
2018-12-19T07:25:27.308Z,87.43
2018-12-19T07:26:27.312Z,87.22
2018-12-19T07:27:27.302Z,87.01
2018-12-19T07:28:27.318Z,87.01
2018-12-19T07:29:27.272Z,87.12
2018-12-19T07:30:27.258Z,87.32
2018-12-19T07:31:27.244Z,86.97
2018-12-19T07:32:27.254Z,87.01
2018-12-19T07:33:27.291Z,86.80
2018-12-19T07:34:27.217Z,87.32
2018-12-19T07:35:27.209Z,87.01
2018-12-19T07:36:27.223Z,87.32
2018-12-19T07:37:27.195Z,86.80
2018-12-19T07:38:27.190Z,86.97
2018-12-19T07:39:27.169Z,86.55
2018-12-19T07:40:27.154Z,86.66
2018-12-19T07:41:34.950Z,86.59
2018-12-19T07:42:27.148Z,86.59
2018-12-19T07:43:27.151Z,86.38
2018-12-19T07:44:27.122Z,86.35
2018-12-19T07:45:27.103Z,86.35
2018-12-19T07:46:27.104Z,86.35
2018-12-19T07:47:27.080Z,86.03
2018-12-19T07:48:27.094Z,86.13
2018-12-19T07:49:27.069Z,85.82
2018-12-19T07:50:27.099Z,86.03
2018-12-19T07:51:27.039Z,85.93
2018-12-19T07:52:27.356Z,85.93
2018-12-19T07:53:27.040Z,85.61
2018-12-19T07:54:27.034Z,85.61
2018-12-19T07:55:27.007Z,85.72
2018-12-19T07:56:26.994Z,85.82
2018-12-19T07:57:26.976Z,85.72
2018-12-19T07:58:26.970Z,85.72
2018-12-19T07:59:26.981Z,85.41
2018-12-19T08:00:27.542Z,85.10
2018-12-19T08:01:26.947Z,85.51
2018-12-19T08:02:26.938Z,85.30
2018-12-19T08:03:26.916Z,85.20
2018-12-19T08:04:27.904Z,85.41
2018-12-19T08:05:26.995Z,85.10
2018-12-19T08:06:26.881Z,85.20
2018-12-19T08:07:26.880Z,85.41
2018-12-19T08:08:26.874Z,84.53
2018-12-19T08:09:26.887Z,85.10
2018-12-19T08:10:26.842Z,84.43
2018-12-19T08:11:26.831Z,84.99
2018-12-19T08:12:27.064Z,84.74
2018-12-19T08:13:26.812Z,84.84
2018-12-19T08:14:26.826Z,84.84
2018-12-19T08:15:27.056Z,84.84
2018-12-19T08:16:26.784Z,84.53
2018-12-19T08:17:26.817Z,84.84
2018-12-19T08:18:26.785Z,84.74
2018-12-19T08:19:26.980Z,84.74
2018-12-19T08:20:26.764Z,84.74
2018-12-19T08:21:26.724Z,84.64
2018-12-19T08:22:26.714Z,84.74
2018-12-19T08:23:26.708Z,84.64
2018-12-19T08:24:26.723Z,84.53
2018-12-19T08:25:26.692Z,84.53
2018-12-19T08:26:26.676Z,84.01
2018-12-19T08:27:26.662Z,84.01
2018-12-19T08:28:26.651Z,84.01
2018-12-19T08:29:26.675Z,84.01
2018-12-19T08:30:26.630Z,84.33
2018-12-19T08:31:27.452Z,84.33
2018-12-19T08:32:26.664Z,84.33
2018-12-19T08:33:26.597Z,84.33
2018-12-19T08:34:26.609Z,84.12
2018-12-19T08:35:26.586Z,84.12
2018-12-19T08:36:26.570Z,84.12
2018-12-19T08:37:26.567Z,84.01
2018-12-19T08:38:26.607Z,83.97
2018-12-19T08:39:26.551Z,83.45
2018-12-19T08:40:26.523Z,83.45
2018-12-19T08:41:26.537Z,83.76
2018-12-19T08:42:26.565Z,83.39
2018-12-19T08:43:26.522Z,83.39
2018-12-19T08:44:26.479Z,83.70
2018-12-19T08:45:26.523Z,83.45
2018-12-19T08:46:26.462Z,83.56
2018-12-19T08:47:26.452Z,83.59
2018-12-19T08:48:26.449Z,83.56
2018-12-19T08:49:26.435Z,83.80
2018-12-19T08:50:26.429Z,83.35
2018-12-19T08:51:26.409Z,83.45
2018-12-19T08:52:26.403Z,83.45
2018-12-19T08:53:26.973Z,83.45
2018-12-19T08:54:26.381Z,83.14
2018-12-19T08:55:26.389Z,83.25
2018-12-19T08:56:26.360Z,83.25
2018-12-19T08:57:26.344Z,83.25
2018-12-19T08:58:26.353Z,83.35
2018-12-19T08:59:26.327Z,83.25
2018-12-19T09:00:26.332Z,83.25
2018-12-19T09:01:26.340Z,83.25
2018-12-19T09:02:26.287Z,83.45
2018-12-19T09:03:26.281Z,83.18
2018-12-19T09:04:26.269Z,83.35
2018-12-19T09:05:26.265Z,83.25
2018-12-19T09:06:26.273Z,83.14
2018-12-19T09:07:26.235Z,83.14
2018-12-19T09:08:26.229Z,83.28
2018-12-19T09:09:26.215Z,83.14
2018-12-19T09:10:26.206Z,83.25
2018-12-19T09:11:26.217Z,83.28
2018-12-19T09:12:26.210Z,83.07
2018-12-19T09:13:26.169Z,83.25
2018-12-19T09:14:26.169Z,83.14
2018-12-19T09:15:27.775Z,83.25
2018-12-19T09:16:26.165Z,83.14
2018-12-19T09:17:26.150Z,83.25
2018-12-19T09:18:26.126Z,83.45
2018-12-19T09:19:26.135Z,83.35
2018-12-19T09:20:26.102Z,83.25
2018-12-19T09:21:26.111Z,82.72
2018-12-19T09:22:26.101Z,82.10
2018-12-19T09:23:26.077Z,82.20
2018-12-19T09:24:26.063Z,82.51
2018-12-19T09:25:26.042Z,82.72
2018-12-19T09:26:26.062Z,83.45
2018-12-19T09:27:26.023Z,82.82
2018-12-19T09:28:26.019Z,82.72
2018-12-19T09:29:26.033Z,82.27
2018-12-19T09:30:26.005Z,82.27
2018-12-19T09:31:26.063Z,82.20
2018-12-19T09:32:25.980Z,82.31
2018-12-19T09:33:27.604Z,82.51
2018-12-19T09:34:25.984Z,82.62
2018-12-19T09:35:25.950Z,82.31
2018-12-19T09:36:25.948Z,82.20
2018-12-19T09:37:25.974Z,82.10
2018-12-19T09:38:25.911Z,82.62
2018-12-19T09:39:25.938Z,82.62
2018-12-19T09:40:25.927Z,83.35
2018-12-19T09:41:25.888Z,82.82
2018-12-19T09:42:25.894Z,82.72
2018-12-19T09:43:25.856Z,82.72
2018-12-19T09:44:25.848Z,82.41
2018-12-19T09:45:25.837Z,82.37
2018-12-19T09:46:25.831Z,82.48
2018-12-19T09:47:25.838Z,82.20
2018-12-19T09:48:25.803Z,82.06
2018-12-19T09:49:25.798Z,82.27
2018-12-19T09:50:25.783Z,82.27
2018-12-19T09:51:25.774Z,82.06
2018-12-19T09:52:25.776Z,81.85
2018-12-19T09:53:25.757Z,81.96
2018-12-19T09:54:25.740Z,81.85
2018-12-19T09:55:25.746Z,81.54
2018-12-19T09:56:25.722Z,81.54
2018-12-19T09:57:25.787Z,81.40
2018-12-19T09:58:25.722Z,81.81
2018-12-19T09:59:25.699Z,81.92
2018-12-19T10:00:25.699Z,81.85
2018-12-19T10:01:25.668Z,81.54
2018-12-19T10:02:25.652Z,81.40
2018-12-19T10:03:25.657Z,81.29
2018-12-19T10:04:25.649Z,81.54
2018-12-19T10:05:25.635Z,81.85
2018-12-19T10:06:25.619Z,81.54
2018-12-19T10:07:25.606Z,81.43
2018-12-19T10:08:25.622Z,81.92
2018-12-19T10:09:25.598Z,81.09
2018-12-19T10:10:25.602Z,81.29
2018-12-19T10:11:25.573Z,81.19
2018-12-19T10:12:25.570Z,81.71
2018-12-19T10:13:25.546Z,81.92
2018-12-19T10:14:25.549Z,81.29
2018-12-19T10:15:25.534Z,81.09
2018-12-19T10:16:25.509Z,81.29
2018-12-19T10:17:25.510Z,80.88
2018-12-19T10:18:25.512Z,80.84
2018-12-19T10:19:25.471Z,80.67
2018-12-19T10:20:25.488Z,80.88
2018-12-19T10:21:25.457Z,80.88
2018-12-19T10:22:25.451Z,81.19
2018-12-19T10:23:25.433Z,80.88
2018-12-19T10:24:25.476Z,81.09
2018-12-19T10:25:25.412Z,80.88
2018-12-19T10:26:25.412Z,80.98
2018-12-19T10:27:25.395Z,80.67
2018-12-19T10:28:25.389Z,80.98
2018-12-19T10:29:25.390Z,80.77
2018-12-19T10:30:25.362Z,80.98
2018-12-19T10:31:25.354Z,80.98
2018-12-19T10:32:25.347Z,80.88
2018-12-19T10:33:25.359Z,80.57
2018-12-19T10:34:25.343Z,80.57
2018-12-19T10:35:25.302Z,80.57
2018-12-19T10:36:25.299Z,80.77
2018-12-19T10:37:25.291Z,80.53
2018-12-19T10:38:25.274Z,80.94
2018-12-19T10:39:25.298Z,80.84
2018-12-19T10:40:25.270Z,81.05
2018-12-19T10:41:25.684Z,80.84
2018-12-19T10:42:25.248Z,80.53
2018-12-19T10:43:25.225Z,80.84
2018-12-19T10:44:25.233Z,80.53
2018-12-19T10:45:25.203Z,80.74
2018-12-19T10:46:25.190Z,80.60
2018-12-19T10:47:25.184Z,80.32
2018-12-19T10:48:25.175Z,80.53
2018-12-19T10:49:25.221Z,80.18
2018-12-19T10:50:25.177Z,79.76
2018-12-19T10:51:25.171Z,80.18
2018-12-19T10:52:25.140Z,80.39
2018-12-19T10:53:25.121Z,80.18
2018-12-19T10:54:25.131Z,79.66
2018-12-19T10:55:25.104Z,80.08
2018-12-19T10:56:25.109Z,80.08
2018-12-19T10:57:25.077Z,79.45
2018-12-19T10:58:25.078Z,79.76
2018-12-19T10:59:25.079Z,79.87
2018-12-19T11:00:25.042Z,79.76
2018-12-19T11:01:25.043Z,80.29
2018-12-19T11:02:25.026Z,79.55
2018-12-19T11:03:25.019Z,79.72
2018-12-19T11:04:25.036Z,79.72
2018-12-19T11:05:24.999Z,78.69
2018-12-19T11:06:25.005Z,78.89
2018-12-19T11:07:24.981Z,79.00
2018-12-19T11:08:24.963Z,78.48
2018-12-19T11:09:24.959Z,78.38
2018-12-19T11:10:24.957Z,79.21
2018-12-19T11:11:24.930Z,79.31
2018-12-19T11:12:24.919Z,79.00
2018-12-19T11:13:24.915Z,78.38
2018-12-19T11:14:24.924Z,78.48
2018-12-19T11:15:24.899Z,78.34
2018-12-19T11:16:24.880Z,78.58
2018-12-19T11:17:24.871Z,78.44
2018-12-19T11:18:24.862Z,78.23
2018-12-19T11:19:24.853Z,78.86
2018-12-19T11:20:24.875Z,78.55
2018-12-19T11:21:24.843Z,78.27
2018-12-19T11:22:24.808Z,78.58
2018-12-19T11:23:24.813Z,78.38
2018-12-19T11:24:24.796Z,78.79
2018-12-19T11:25:24.805Z,79.21
2018-12-19T11:26:24.773Z,78.79
2018-12-19T11:27:24.779Z,78.89
2018-12-19T11:28:24.749Z,79.00
2018-12-19T11:29:24.736Z,79.10
2018-12-19T11:30:24.738Z,79.10
2018-12-19T11:31:24.740Z,79.00
2018-12-19T11:32:24.705Z,79.03
2018-12-19T11:33:24.707Z,79.24
2018-12-19T11:34:24.689Z,79.52
2018-12-19T11:35:24.677Z,79.62
2018-12-19T11:36:24.679Z,79.35
2018-12-19T11:37:24.671Z,79.62
2018-12-19T11:38:24.679Z,79.94
2018-12-19T11:39:24.635Z,79.66
2018-12-19T11:40:24.632Z,78.89
2018-12-19T11:41:24.633Z,79.45
2018-12-19T11:42:24.603Z,79.52
2018-12-19T11:43:24.607Z,79.83
2018-12-19T11:44:24.581Z,79.62
2018-12-19T11:45:24.571Z,79.62
2018-12-19T11:46:24.595Z,79.21
2018-12-19T11:47:24.587Z,79.41
2018-12-19T11:48:24.539Z,79.31
2018-12-19T11:49:24.525Z,79.31
2018-12-19T11:50:24.519Z,79.31
2018-12-19T11:51:24.513Z,79.00
2018-12-19T11:52:24.518Z,79.10
2018-12-19T11:53:24.491Z,79.72
2018-12-19T11:54:24.477Z,79.21
2018-12-19T11:55:24.467Z,79.21
2018-12-19T11:56:24.498Z,79.41
2018-12-19T11:57:24.473Z,79.10
2018-12-19T11:58:24.441Z,79.72
2018-12-19T11:59:24.439Z,79.41
2018-12-19T12:00:24.421Z,79.41
2018-12-19T12:01:24.399Z,79.41
2018-12-19T12:02:24.407Z,79.31
2018-12-19T12:03:24.391Z,78.86
2018-12-19T12:04:24.369Z,79.27
2018-12-19T12:05:24.365Z,78.44
2018-12-19T12:06:24.347Z,78.34
2018-12-19T12:07:24.370Z,78.13
2018-12-19T12:08:24.335Z,78.34
2018-12-19T12:09:24.351Z,78.34
2018-12-19T12:10:24.308Z,78.03
2018-12-19T12:11:24.297Z,78.75
2018-12-19T12:12:24.305Z,78.75
2018-12-19T12:13:24.274Z,78.55
2018-12-19T12:14:24.284Z,78.13
2018-12-19T12:15:24.274Z,78.44
2018-12-19T12:16:24.239Z,78.65
2018-12-19T12:18:25.399Z,78.65
2018-12-19T12:19:24.208Z,78.55
2018-12-19T12:20:24.211Z,78.44
2018-12-19T12:21:24.189Z,78.65
2018-12-19T12:22:24.197Z,78.13
2018-12-19T12:23:24.176Z,78.34
2018-12-19T12:24:24.183Z,78.34
2018-12-19T12:25:24.171Z,78.34
2018-12-19T12:26:24.155Z,78.13
2018-12-19T12:27:24.160Z,78.65
2018-12-19T12:28:24.156Z,78.44
2018-12-19T12:29:24.106Z,78.44
2018-12-19T12:30:24.100Z,78.44
2018-12-19T12:31:24.097Z,78.65
2018-12-19T12:32:24.107Z,78.86
2018-12-19T12:33:24.067Z,78.65
2018-12-19T12:34:24.057Z,78.44
2018-12-19T12:35:24.061Z,78.34
2018-12-19T12:36:24.030Z,78.55
2018-12-19T12:37:24.116Z,78.55
2018-12-19T12:38:24.020Z,78.23
2018-12-19T12:39:24.002Z,78.34
2018-12-19T12:40:24.008Z,78.34
2018-12-19T12:41:24.000Z,78.23
2018-12-19T12:42:24.000Z,78.30
2018-12-19T12:43:24.012Z,78.09
2018-12-19T12:44:23.971Z,78.20
2018-12-19T12:45:23.949Z,78.09
2018-12-19T12:46:23.944Z,78.20
2018-12-19T12:47:23.922Z,77.99
2018-12-19T12:48:23.973Z,77.89
2018-12-19T12:49:23.903Z,77.72
2018-12-19T12:50:23.890Z,77.89
2018-12-19T12:51:23.878Z,78.09
2018-12-19T12:52:23.872Z,77.78
2018-12-19T12:53:23.883Z,78.09